Time;durP1;ratioP1;P1;durP2;ratioP2;P2;SDS_P1;SDS_P2;PMS_P1;PMS_P2;Temp;Humidity;BMP_temperature;BMP_pressure;BME280_temperature;BME280_humidity;BME280_pressure;Samples;Min_cycle;Max_cycle;Signal;HPM_P1;HPM_P2
2022/09/15 00:01:45;;;;;;;3.60;0.30;;;;;;;13.37;54.70;100387.78;4971748;28;20045;-69
2022/09/15 00:04:10;;;;;;;1.25;0.28;;;;;;;13.41;54.57;100389.28;4987918;28;20487;-70
2022/09/15 00:06:36;;;;;;;3.20;0.52;;;;;;;13.38;54.59;100384.19;4978505;28;20097;-72
2022/09/15 00:09:03;;;;;;;3.78;0.85;;;;;;;13.47;54.53;100386.28;4974972;28;20042;-70
2022/09/15 00:11:32;;;;;;;0.95;0.30;;;;;;;13.44;54.54;100394.34;4978412;28;20475;-71
2022/09/15 00:13:59;;;;;;;2.95;0.45;;;;;;;13.44;54.49;100394.34;4981263;28;20169;-69
2022/09/15 00:16:26;;;;;;;4.65;2.03;;;;;;;13.42;54.41;100396.22;4976110;28;20267;-70
2022/09/15 00:18:52;;;;;;;3.13;0.30;;;;;;;13.44;54.37;100398.75;4971453;28;20064;-71
2022/09/15 00:21:25;;;;;;;5.20;0.40;;;;;;;13.45;54.29;100389.91;4970974;28;20373;-69
2022/09/15 00:23:51;;;;;;;1.20;0.32;;;;;;;13.40;54.51;100397.25;4970015;28;20121;-70
2022/09/15 00:26:19;;;;;;;3.35;0.95;;;;;;;13.24;54.09;100397.31;4971466;28;20381;-71
2022/09/15 00:28:45;;;;;;;2.65;0.30;;;;;;;13.34;54.31;100398.47;4978130;28;20048;-70
2022/09/15 00:31:13;;;;;;;7.03;0.45;;;;;;;13.15;54.76;100403.09;4988624;28;20039;-70
2022/09/15 00:33:39;;;;;;;3.80;0.57;;;;;;;13.17;54.24;100398.59;4973740;28;20047;-70
2022/09/15 00:36:09;;;;;;;0.90;0.20;;;;;;;13.09;53.99;100397.28;4974058;28;20037;-70
2022/09/15 00:38:36;;;;;;;2.25;0.40;;;;;;;13.25;54.22;100398.97;4971528;28;20070;-70
2022/09/15 00:41:03;;;;;;;4.65;0.70;;;;;;;13.27;53.65;100407.59;4973996;28;20183;-69
2022/09/15 00:43:52;;;;;;;5.20;0.40;;;;;;;13.28;53.44;100401.44;4973415;28;20321;-71
2022/09/15 00:46:22;;;;;;;3.10;0.22;;;;;;;13.19;53.50;100404.59;4978131;28;20022;-71
2022/09/15 00:49:12;;;;;;;9.63;0.50;;;;;;;12.98;53.51;100404.94;4975988;28;20636;-71
2022/09/15 00:51:47;;;;;;;3.83;0.20;;;;;;;13.03;53.71;100394.16;4978257;28;20041;-70
2022/09/15 00:54:36;;;;;;;11.35;0.50;;;;;;;12.87;53.07;100399.44;4979563;28;20061;-70
2022/09/15 00:57:10;;;;;;;2.90;0.28;;;;;;;13.06;52.87;100393.97;5015553;22;20046;-79
2022/09/15 00:59:39;;;;;;;6.35;0.30;;;;;;;12.98;52.62;100389.19;4992978;28;20048;-77
2022/09/15 01:02:14;;;;;;;3.83;0.20;;;;;;;13.13;52.13;100395.31;5020492;28;20069;-76
2022/09/15 01:04:40;;;;;;;1.77;0.13;;;;;;;13.06;51.67;100389.56;5008047;28;20044;-75
2022/09/15 01:07:10;;;;;;;2.00;0.55;;;;;;;12.99;52.04;100387.41;4989268;28;20037;-75
2022/09/15 01:09:40;;;;;;;2.38;0.13;;;;;;;13.05;51.66;100387.91;5002664;28;20128;-77
2022/09/15 01:12:06;;;;;;;1.80;0.55;;;;;;;13.00;50.81;100387.28;4986739;28;20066;-76
2022/09/15 01:14:32;;;;;;;0.75;0.20;;;;;;;13.07;50.71;100383.41;5003954;28;20308;-77
2022/09/15 01:17:22;;;;;;;1.33;0.10;;;;;;;13.05;50.24;100393.13;4988237;28;20077;-76
2022/09/15 01:20:03;;;;;;;3.20;0.30;;;;;;;13.02;50.34;100387.22;4990260;28;20049;-77
2022/09/15 01:22:55;;;;;;;4.60;0.40;;;;;;;12.92;50.40;100388.69;5004500;28;20041;-75
2022/09/15 01:25:30;;;;;;;1.52;0.10;;;;;;;13.10;49.93;100396.34;5004379;28;20172;-77
2022/09/15 01:28:11;;;;;;;3.35;0.10;;;;;;;13.08;50.22;100398.19;5003801;28;20073;-77
2022/09/15 01:30:39;;;;;;;3.03;0.65;;;;;;;13.19;50.03;100391.50;4990974;28;20030;-77
2022/09/15 01:33:05;;;;;;;1.63;0.47;;;;;;;13.24;49.93;100392.91;5006174;28;20141;-75
2022/09/15 01:35:37;;;;;;;2.10;0.20;;;;;;;13.20;49.62;100401.88;5005259;28;20121;-77
2022/09/15 01:38:21;;;;;;;5.28;0.10;;;;;;;12.85;49.91;100412.66;4999679;28;20096;-76
2022/09/15 01:40:57;;;;;;;1.80;0.30;;;;;;;12.74;50.33;100408.94;5022337;28;20499;-76
2022/09/15 01:43:26;;;;;;;4.72;0.57;;;;;;;12.62;51.20;100420.91;4985170;28;20399;-76
2022/09/15 01:45:52;;;;;;;2.60;0.47;;;;;;;12.80;50.76;100413.81;5002580;28;20030;-75
2022/09/15 01:48:21;;;;;;;3.13;0.20;;;;;;;12.79;50.39;100407.75;4984988;28;20483;-77
2022/09/15 01:50:55;;;;;;;9.07;0.52;;;;;;;12.40;50.99;100416.00;5005276;28;20200;-76
2022/09/15 01:53:22;;;;;;;3.55;0.20;;;;;;;12.50;50.39;100414.59;4995322;28;20172;-76
2022/09/15 01:56:04;;;;;;;3.45;0.22;;;;;;;12.50;50.45;100422.44;5004725;28;20029;-78
2022/09/15 01:58:30;;;;;;;6.32;0.65;;;;;;;12.64;50.02;100419.06;5002349;28;20069;-77
2022/09/15 02:01:02;;;;;;;3.58;0.15;;;;;;;12.70;49.74;100413.50;4988375;28;20030;-77
2022/09/15 02:03:33;;;;;;;2.85;0.13;;;;;;;12.56;49.61;100413.38;4978946;28;20153;-76
2022/09/15 02:06:08;;;;;;;;;;;;;;;12.57;49.43;100409.84;5003352;28;20033;-78
2022/09/15 02:09:01;;;;;;;3.22;0.10;;;;;;;12.85;48.94;100403.94;5021079;28;19921;-76
2022/09/15 02:11:29;;;;;;;2.80;0.57;;;;;;;12.81;48.09;100410.28;4987377;28;20471;-76
2022/09/15 02:14:16;;;;;;;2.42;0.25;;;;;;;12.83;47.96;100403.19;4991365;28;20050;-75
2022/09/15 02:16:46;;;;;;;1.60;0.10;;;;;;;12.87;47.65;100399.44;4987504;28;20045;-76
2022/09/15 02:19:40;;;;;;;1.85;0.10;;;;;;;13.02;47.15;100409.03;5000010;28;20042;-76
2022/09/15 02:22:16;;;;;;;2.05;0.10;;;;;;;12.91;47.15;100400.94;4995776;28;20101;-76
2022/09/15 02:25:04;;;;;;;1.90;0.13;;;;;;;12.98;47.09;100417.19;4999276;28;20128;-76
2022/09/15 02:27:36;;;;;;;4.38;0.10;;;;;;;12.62;47.79;100416.50;5020008;28;20050;-76
2022/09/15 02:30:11;;;;;;;3.58;0.10;;;;;;;12.62;47.64;100420.91;5000703;28;20030;-77
2022/09/15 02:32:42;;;;;;;3.28;0.17;;;;;;;12.76;47.22;100410.56;5018532;28;20092;-75
2022/09/15 02:35:09;;;;;;;2.55;0.20;;;;;;;12.32;47.41;100418.22;5001463;28;20049;-76
2022/09/15 02:37:37;;;;;;;4.18;0.38;;;;;;;12.43;46.74;100410.63;4996497;28;20041;-76
2022/09/15 02:40:05;;;;;;;6.20;0.32;;;;;;;12.36;46.68;100417.13;4987113;28;20052;-76
2022/09/15 02:42:31;;;;;;;1.98;0.20;;;;;;;12.61;45.73;100406.13;5002007;28;20045;-76
2022/09/15 02:44:58;;;;;;;1.75;0.22;;;;;;;12.80;45.19;100401.56;4997083;28;20076;-77
2022/09/15 02:47:24;;;;;;;0.65;0.10;;;;;;;12.61;45.29;100398.28;4989625;28;20046;-76
2022/09/15 02:49:50;;;;;;;3.75;0.20;;;;;;;12.89;45.10;100398.44;5003012;28;20073;-76
2022/09/15 02:52:16;;;;;;;2.13;0.08;;;;;;;12.91;45.20;100395.69;5004058;28;20056;-76
2022/09/15 02:54:41;;;;;;;3.75;0.30;;;;;;;12.98;44.80;100401.44;5007413;28;20496;-76
2022/09/15 02:57:08;;;;;;;2.72;0.30;;;;;;;12.95;45.08;100399.00;5002541;28;20045;-74
2022/09/15 03:02:19;;;;;;;4.82;0.63;;;;;;;12.99;44.95;100395.28;5002503;28;20037;-76
2022/09/15 03:04:49;;;;;;;0.85;0.10;;;;;;;12.97;44.99;100399.75;5004373;28;20037;-78
2022/09/15 03:07:16;;;;;;;4.68;0.40;;;;;;;13.00;44.76;100404.81;4993264;28;20600;-77
2022/09/15 03:09:41;;;;;;;3.63;0.10;;;;;;;13.06;45.05;100399.22;5000193;28;20042;-77
2022/09/15 03:12:07;;;;;;;8.15;0.10;;;;;;;13.06;44.78;100405.31;4983737;28;20419;-80
2022/09/15 03:14:34;;;;;;;1.05;0.10;;;;;;;13.00;44.51;100395.16;5001121;28;20445;-80
2022/09/15 03:17:01;;;;;;;2.42;0.52;;;;;;;13.10;44.75;100385.84;5002579;28;20049;-78
2022/09/15 03:19:27;;;;;;;4.78;0.13;;;;;;;13.02;44.60;100388.06;4991234;28;20555;-78
2022/09/15 03:21:52;;;;;;;5.05;0.10;;;;;;;13.00;44.73;100387.28;5004391;28;20050;-76
2022/09/15 03:24:18;;;;;;;4.70;0.40;;;;;;;12.98;45.06;100391.81;5001211;28;20499;-77
2022/09/15 03:26:45;;;;;;;2.08;0.10;;;;;;;13.04;45.04;100401.94;5003816;28;20105;-77
2022/09/15 03:29:11;;;;;;;3.63;0.10;;;;;;;12.95;45.60;100394.59;5005258;28;20102;-77
2022/09/15 03:31:36;;;;;;;4.72;0.32;;;;;;;12.81;45.46;100394.56;5003391;28;20048;-75
2022/09/15 03:34:02;;;;;;;3.80;0.20;;;;;;;12.84;45.78;100394.38;4991772;28;20037;-78
2022/09/15 03:36:27;;;;;;;1.35;0.10;;;;;;;12.89;45.71;100394.94;4988219;28;20535;-78
2022/09/15 03:38:55;;;;;;;1.20;0.45;;;;;;;12.81;46.14;100387.53;5001053;28;20061;-77
2022/09/15 03:41:20;;;;;;;2.70;0.10;;;;;;;12.84;46.20;100391.75;5000741;28;20038;-76
2022/09/15 03:43:46;;;;;;;5.95;0.35;;;;;;;12.78;46.10;100400.81;4987147;28;20052;-77
2022/09/15 03:46:11;;;;;;;3.65;0.20;;;;;;;12.85;46.00;100396.06;4986942;28;20674;-77
2022/09/15 03:48:39;;;;;;;7.90;0.50;;;;;;;12.83;46.07;100392.69;4988612;28;20048;-75
2022/09/15 03:51:06;;;;;;;4.80;0.10;;;;;;;12.82;45.83;100406.72;5000133;28;20676;-77
2022/09/15 03:53:33;;;;;;;3.05;0.20;;;;;;;12.77;45.71;100396.50;5000487;28;20030;-76
2022/09/15 03:56:21;;;;;;;1.70;0.47;;;;;;;12.39;45.22;100402.06;4986631;28;20223;-77
2022/09/15 03:58:47;;;;;;;5.38;0.30;;;;;;;12.34;44.48;100387.53;4983082;28;20054;-76
2022/09/15 04:01:12;;;;;;;6.00;0.20;;;;;;;12.41;44.16;100391.50;4985840;28;20056;-75
2022/09/15 04:03:38;;;;;;;1.23;0.10;;;;;;;12.34;43.94;100398.88;4988311;28;20042;-76
2022/09/15 04:06:04;;;;;;;4.50;0.20;;;;;;;12.12;44.00;100391.31;4986166;28;20030;-76
2022/09/15 04:08:29;;;;;;;4.20;0.40;;;;;;;12.24;43.98;100385.41;4986893;28;20498;-77
2022/09/15 04:10:55;;;;;;;12.40;0.55;;;;;;;12.32;43.79;100397.28;4987051;28;20088;-78
2022/09/15 04:13:21;;;;;;;3.03;0.22;;;;;;;11.97;44.15;100386.91;4986290;28;20112;-74
2022/09/15 04:15:48;;;;;;;5.85;0.20;;;;;;;12.29;43.40;100388.63;5019025;28;20034;-77
2022/09/15 04:18:13;;;;;;;3.40;0.25;;;;;;;12.33;43.22;100381.44;5006243;28;20041;-76
2022/09/15 04:20:39;;;;;;;3.50;0.15;;;;;;;12.55;42.85;100393.38;4992726;28;20042;-77
2022/09/15 04:23:05;;;;;;;4.55;0.57;;;;;;;12.22;43.58;100392.53;4990296;28;20141;-77
2022/09/15 04:25:30;;;;;;;8.27;0.55;;;;;;;12.19;43.04;100391.84;4988247;28;20096;-76
2022/09/15 04:27:56;;;;;;;1.40;0.10;;;;;;;12.27;42.93;100390.50;5004647;28;20033;-77
2022/09/15 04:30:22;;;;;;;3.47;0.82;;;;;;;12.28;43.04;100399.19;4984548;28;20104;-77
2022/09/15 04:32:48;;;;;;;2.00;0.03;;;;;;;12.32;42.99;100405.13;4992239;28;20049;-77
2022/09/15 04:35:15;;;;;;;1.80;0.10;;;;;;;12.42;42.98;100401.06;4989619;28;20034;-78
2022/09/15 04:37:40;;;;;;;2.28;0.20;;;;;;;12.49;42.79;100397.16;5004921;28;20046;-76
2022/09/15 04:40:07;;;;;;;9.57;0.28;;;;;;;12.41;43.21;100405.47;5004043;28;20098;-77
2022/09/15 04:42:33;;;;;;;3.65;0.43;;;;;;;12.41;43.12;100399.38;4987603;28;20183;-79
2022/09/15 04:44:58;;;;;;;3.42;0.30;;;;;;;12.54;43.31;100402.16;4992961;28;20667;-78
2022/09/15 04:47:24;;;;;;;2.03;0.10;;;;;;;12.46;43.58;100411.28;4990549;28;20121;-76
2022/09/15 04:49:49;;;;;;;2.03;0.10;;;;;;;12.63;43.03;100399.88;4988978;28;20037;-78
2022/09/15 04:52:15;;;;;;;2.58;0.35;;;;;;;12.64;43.43;100404.16;4987610;28;20110;-77
2022/09/15 04:54:40;;;;;;;0.70;0.40;;;;;;;12.59;43.34;100400.97;4990486;28;20151;-76
2022/09/15 04:57:06;;;;;;;1.33;0.20;;;;;;;12.67;43.41;100393.53;4991218;28;20444;-77
2022/09/15 04:59:31;;;;;;;0.40;0.10;;;;;;;12.68;43.57;100389.97;4990328;28;20510;-76
2022/09/15 05:01:57;;;;;;;2.50;0.10;;;;;;;12.71;43.69;100391.59;4989720;28;20038;-76
2022/09/15 05:04:23;;;;;;;3.88;0.15;;;;;;;12.70;43.48;100398.63;5005960;28;20124;-77
2022/09/15 05:06:48;;;;;;;5.75;0.47;;;;;;;12.63;43.80;100401.66;5004471;28;20062;-77
2022/09/15 05:09:13;;;;;;;6.35;0.38;;;;;;;12.52;44.66;100407.50;4989034;28;20038;-77
2022/09/15 05:11:39;;;;;;;3.33;0.30;;;;;;;12.54;45.25;100410.88;5004471;28;20038;-77
2022/09/15 05:14:05;;;;;;;4.55;0.77;;;;;;;11.90;47.79;100416.97;4995475;28;20049;-77
2022/09/15 05:16:31;;;;;;;1.45;0.20;;;;;;;12.29;47.33;100417.47;5004155;28;20027;-75
2022/09/15 05:18:59;;;;;;;2.70;0.25;;;;;;;12.46;46.74;100416.53;5019916;28;20403;-77
2022/09/15 05:21:26;;;;;;;7.80;0.50;;;;;;;12.49;47.01;100410.25;4991011;28;20061;-76
2022/09/15 05:23:52;;;;;;;3.72;0.20;;;;;;;12.59;46.88;100414.06;4987763;28;20045;-77
2022/09/15 05:26:24;;;;;;;6.13;0.20;;;;;;;12.53;47.19;100414.41;5001664;28;20514;-76
2022/09/15 05:28:50;;;;;;;2.40;0.30;;;;;;;12.85;46.65;100411.81;4990929;28;20055;-76
2022/09/15 05:31:21;;;;;;;2.65;0.20;;;;;;;12.93;46.40;100420.06;4993491;28;20034;-78
2022/09/15 05:33:48;;;;;;;5.53;0.20;;;;;;;12.99;46.34;100419.72;4981874;28;20054;-77
2022/09/15 05:36:16;;;;;;;0.93;0.10;;;;;;;12.78;46.32;100413.94;5004829;28;20018;-77
2022/09/15 05:38:42;;;;;;;4.18;0.30;;;;;;;12.54;46.63;100423.97;4990803;28;20053;-77
2022/09/15 05:41:16;;;;;;;1.55;0.13;;;;;;;12.51;45.93;100418.88;4987826;28;20172;-77
2022/09/15 05:43:43;;;;;;;8.52;0.65;;;;;;;12.64;45.57;100419.91;4995790;28;20077;-76
2022/09/15 05:46:09;;;;;;;10.18;0.55;;;;;;;12.57;45.71;100413.31;4989370;28;20681;-77
2022/09/15 05:48:35;;;;;;;1.20;0.10;;;;;;;12.04;46.54;100420.56;5003134;28;20041;-77
2022/09/15 05:51:02;;;;;;;3.03;0.60;;;;;;;12.52;45.59;100417.97;4991725;28;20739;-75
2022/09/15 05:53:29;;;;;;;3.80;0.20;;;;;;;12.11;46.08;100413.22;5001270;28;20044;-76
2022/09/15 05:56:01;;;;;;;1.75;0.10;;;;;;;12.55;45.70;100415.16;5022149;28;20676;-77
2022/09/15 05:58:28;;;;;;;3.75;0.10;;;;;;;12.68;45.08;100408.31;4988591;28;20041;-77
2022/09/15 06:00:54;;;;;;;2.67;0.10;;;;;;;12.86;44.97;100401.22;5004688;28;20038;-74
2022/09/15 06:03:21;;;;;;;1.05;0.10;;;;;;;13.28;44.11;100406.69;5003588;28;20530;-76
2022/09/15 06:05:46;;;;;;;2.00;0.10;;;;;;;13.55;43.29;100406.00;5004307;28;20045;-74
2022/09/15 06:08:12;;;;;;;1.02;0.20;;;;;;;13.78;43.02;100408.09;4986532;28;20029;-75
2022/09/15 06:10:38;;;;;;;2.92;0.10;;;;;;;13.50;43.49;100401.84;4993613;28;20100;-76
2022/09/15 06:13:04;;;;;;;0.50;0.00;;;;;;;13.92;42.74;100402.84;5021528;28;20049;-76
2022/09/15 06:15:30;;;;;;;2.90;0.30;;;;;;;13.96;43.02;100403.47;4990068;28;20646;-75
2022/09/15 06:17:56;;;;;;;2.90;0.20;;;;;;;13.68;43.51;100406.97;4988268;28;20072;-76
2022/09/15 06:20:22;;;;;;;2.42;0.13;;;;;;;13.63;43.31;100406.38;4989073;28;20061;-76
2022/09/15 06:22:47;;;;;;;2.42;0.60;;;;;;;14.05;43.01;100400.28;5003947;28;20041;-76
2022/09/15 06:25:14;;;;;;;3.05;0.28;;;;;;;14.60;41.98;100411.75;4992883;28;20576;-75
2022/09/15 06:27:40;;;;;;;5.55;0.30;;;;;;;14.73;41.25;100412.66;5021256;28;20136;-77
2022/09/15 06:30:08;;;;;;;3.10;0.10;;;;;;;14.39;41.58;100407.84;5001566;28;20125;-77
2022/09/15 06:32:35;;;;;;;4.90;0.32;;;;;;;14.66;40.71;100395.59;5020740;28;20034;-76
2022/09/15 06:35:05;;;;;;;1.85;0.15;;;;;;;13.66;42.74;100404.44;5005406;28;20032;-77
2022/09/15 06:37:32;;;;;;;1.73;0.10;;;;;;;13.66;43.93;100409.69;4986376;28;20093;-76
2022/09/15 06:39:57;;;;;;;3.83;0.10;;;;;;;13.09;44.20;100399.91;4990129;28;20037;-77
2022/09/15 06:42:23;;;;;;;2.70;0.65;;;;;;;12.98;44.94;100404.06;5002332;28;20040;-77
2022/09/15 06:44:49;;;;;;;4.70;0.00;;;;;;;13.02;44.61;100401.16;5003854;28;20408;-76
2022/09/15 06:47:15;;;;;;;0.90;0.10;;;;;;;13.00;44.32;100400.41;4986014;28;20046;-76
2022/09/15 06:49:40;;;;;;;0.93;0.10;;;;;;;12.97;44.27;100407.63;5003235;28;20092;-76
2022/09/15 06:52:06;;;;;;;1.58;0.13;;;;;;;12.57;44.44;100408.06;4986224;28;20062;-77
2022/09/15 06:54:31;;;;;;;3.65;0.40;;;;;;;12.96;44.05;100408.53;4985678;28;20092;-76
2022/09/15 06:56:57;;;;;;;2.83;0.20;;;;;;;13.18;43.72;100421.28;5002290;28;20136;-74
2022/09/15 06:59:23;;;;;;;0.30;0.03;;;;;;;13.20;43.32;100422.03;5002049;28;20049;-75
2022/09/15 07:01:53;;;;;;;2.05;0.03;;;;;;;13.19;43.48;100430.84;4989041;28;20518;-76
2022/09/15 07:04:19;;;;;;;0.40;0.10;;;;;;;13.42;43.00;100429.50;5019031;28;20041;-78
2022/09/15 07:06:44;;;;;;;1.88;0.10;;;;;;;13.80;42.14;100429.84;4990886;28;20040;-77
2022/09/15 07:09:11;;;;;;;2.47;0.13;;;;;;;15.58;40.87;100425.50;5005443;28;20034;-79
2022/09/15 07:11:36;;;;;;;2.03;0.00;;;;;;;16.69;38.09;100444.09;4989101;28;20044;-79
2022/09/15 07:14:02;;;;;;;2.47;0.10;;;;;;;17.78;36.49;100446.56;5000407;28;20037;-76
2022/09/15 07:16:27;;;;;;;3.28;0.20;;;;;;;17.76;36.27;100448.47;4977596;28;20030;-77
2022/09/15 07:18:54;;;;;;;2.33;0.60;;;;;;;16.58;37.67;100447.53;4990161;28;20033;-79
2022/09/15 07:21:20;;;;;;;1.50;0.13;;;;;;;15.35;41.25;100456.88;4990209;28;20026;-76
2022/09/15 07:23:47;;;;;;;1.85;0.10;;;;;;;14.20;43.78;100445.81;4988054;28;20475;-76
2022/09/15 07:26:27;;;;;;;1.77;0.25;;;;;;;13.37;46.78;100450.75;4997450;28;20041;-76
2022/09/15 07:28:58;;;;;;;5.32;0.38;;;;;;;13.08;48.08;100462.94;5002054;28;20100;-76
2022/09/15 07:31:26;;;;;;;7.13;0.30;;;;;;;12.92;49.30;100476.09;5004144;28;20121;-78
2022/09/15 07:33:51;;;;;;;3.58;0.65;;;;;;;12.39;51.67;100469.38;5004409;28;20668;-76
2022/09/15 07:36:17;;;;;;;2.42;0.30;;;;;;;12.40;52.31;100477.16;4991858;28;20038;-76
2022/09/15 07:38:45;;;;;;;2.90;0.10;;;;;;;12.22;52.46;100476.38;5018869;28;20057;-77
2022/09/15 07:41:17;;;;;;;6.55;0.25;;;;;;;12.22;51.51;100463.28;4988228;28;20034;-76
2022/09/15 07:43:49;;;;;;;;;;;;;;;12.53;50.58;100458.97;5002192;28;20513;-77
2022/09/15 07:46:16;;;;;;;4.07;0.10;;;;;;;12.70;49.94;100458.94;5007544;28;19929;-77
2022/09/15 07:48:50;;;;;;;2.13;0.20;;;;;;;13.08;49.17;100460.31;5000718;28;20300;-77
2022/09/15 07:51:16;;;;;;;3.63;0.30;;;;;;;13.50;47.28;100461.41;5003181;28;20060;-75
2022/09/15 07:53:43;;;;;;;0.63;0.00;;;;;;;13.78;46.73;100465.88;5001068;28;20495;-79
2022/09/15 07:56:09;;;;;;;0.70;0.10;;;;;;;16.26;45.07;100463.84;4998560;28;20132;-77
2022/09/15 07:58:34;;;;;;;2.17;0.13;;;;;;;18.54;38.93;100462.66;4984379;28;20354;-78
2022/09/15 08:01:05;;;;;;;0.73;0.00;;;;;;;19.23;37.00;100465.00;5003961;28;20215;-77
2022/09/15 08:03:31;;;;;;;0.57;0.10;;;;;;;22.45;31.79;100459.13;4994151;28;20084;-75
2022/09/15 08:06:01;;;;;;;5.50;0.10;;;;;;;22.53;30.79;100459.22;4983829;28;20088;-78
2022/09/15 08:08:27;;;;;;;6.28;0.10;;;;;;;23.51;28.22;100466.47;4984090;28;20045;-77
2022/09/15 08:10:53;;;;;;;3.70;0.20;;;;;;;21.25;31.93;100475.72;4988416;28;20101;-78
2022/09/15 08:13:18;;;;;;;5.30;0.68;;;;;;;22.08;30.45;100470.66;4994856;28;20049;-77
2022/09/15 08:15:44;;;;;;;5.60;0.60;;;;;;;23.65;28.60;100476.56;4983175;28;20034;-77
2022/09/15 08:18:10;;;;;;;2.88;0.08;;;;;;;24.49;27.04;100467.00;5002961;28;20038;-79
2022/09/15 08:20:43;;;;;;;1.88;0.20;;;;;;;23.78;27.87;100478.81;5001200;28;20456;-78
2022/09/15 08:23:10;;;;;;;1.30;0.10;;;;;;;21.94;28.92;100479.09;4987852;28;20049;-78
2022/09/15 08:25:37;;;;;;;4.88;0.20;;;;;;;23.60;28.60;100484.19;4983366;28;20102;-76
2022/09/15 08:28:03;;;;;;;4.15;0.17;;;;;;;22.15;28.49;100477.06;4998501;28;20056;-77
2022/09/15 08:30:29;;;;;;;1.65;0.20;;;;;;;20.13;32.24;100486.50;4984090;28;20038;-76
2022/09/15 08:32:54;;;;;;;4.13;0.10;;;;;;;17.99;35.70;100481.91;4999019;28;20121;-78
2022/09/15 08:35:20;;;;;;;5.90;0.30;;;;;;;17.28;37.27;100486.41;5000867;28;20057;-75
2022/09/15 08:37:46;;;;;;;7.88;1.25;;;;;;;17.10;38.90;100499.19;4990894;28;20046;-76
2022/09/15 08:40:43;;;;;;;1.52;0.17;;;;;;;19.03;34.60;100491.34;4987938;28;20053;-78
2022/09/15 08:43:22;;;;;;;2.13;0.10;;;;;;;20.63;31.02;100484.88;4992244;28;20144;-77
2022/09/15 08:46:12;;;;;;;3.17;0.25;;;;;;;21.45;28.90;100492.47;5000305;28;20037;-79
2022/09/15 08:48:42;;;;;;;2.58;0.10;;;;;;;22.03;29.24;100499.50;4978939;28;20040;-75
2022/09/15 08:51:20;;;;;;;1.85;0.10;;;;;;;22.13;28.42;100488.84;4982761;28;20034;-77
2022/09/15 08:53:52;;;;;;;0.82;0.10;;;;;;;21.95;28.68;100500.22;4982567;28;20045;-77
2022/09/15 08:56:19;;;;;;;2.92;0.13;;;;;;;20.30;30.11;100498.31;4985923;28;20517;-76
2022/09/15 08:58:46;;;;;;;3.45;0.20;;;;;;;20.08;32.28;100504.63;4980365;28;20054;-77
2022/09/15 09:01:33;;;;;;;4.50;0.20;;;;;;;19.14;31.72;100502.84;5009703;28;20034;-76
2022/09/15 09:04:46;;;;;;;2.10;0.20;;;;;;;18.60;33.35;100508.00;4994434;28;20042;-78
2022/09/15 09:07:32;;;;;;;3.55;0.10;;;;;;;18.89;32.10;100505.69;4927903;29;20047;-78
2022/09/15 09:10:36;;;;;;;4.13;0.20;;;;;;;18.60;31.60;100509.81;4981083;28;20037;-75
2022/09/15 09:13:21;;;;;;;0.63;0.10;;;;;;;17.48;33.76;100511.38;4957245;28;20063;-78
2022/09/15 09:15:52;;;;;;;8.00;0.20;;;;;;;17.14;35.46;100518.28;4984710;28;20125;-77
2022/09/15 09:18:47;;;;;;;1.92;0.10;;;;;;;16.48;37.38;100529.13;4972728;28;20046;-76
2022/09/15 09:21:34;;;;;;;4.25;0.25;;;;;;;15.24;40.06;100537.50;4986196;28;20101;-77
2022/09/15 09:24:14;;;;;;;4.72;0.38;;;;;;;15.23;41.67;100538.44;5003525;28;20037;-79
2022/09/15 09:26:39;;;;;;;4.85;0.20;;;;;;;15.09;42.58;100540.16;4999728;28;20940;-77
2022/09/15 09:29:17;;;;;;;9.35;0.20;;;;;;;14.68;43.43;100540.13;4990300;28;20041;-78
2022/09/15 09:31:47;;;;;;;1.95;0.10;;;;;;;15.28;41.75;100539.84;4984907;28;20038;-76
2022/09/15 09:34:21;;;;;;;2.75;0.10;;;;;;;15.78;40.71;100534.81;5003282;28;20044;-74
2022/09/15 09:37:08;;;;;;;0.80;0.30;;;;;;;16.51;40.66;100538.59;4994290;28;20549;-76
2022/09/15 09:39:34;;;;;;;1.77;0.57;;;;;;;17.29;37.09;100532.16;5004493;28;20033;-75
2022/09/15 09:42:01;;;;;;;3.53;0.15;;;;;;;17.83;36.50;100529.00;5006279;28;20088;-76
2022/09/15 09:44:30;;;;;;;6.90;0.20;;;;;;;18.33;36.15;100526.91;4984418;28;20104;-77
2022/09/15 09:47:02;;;;;;;5.28;0.68;;;;;;;18.70;35.95;100537.25;4981844;28;20046;-76
2022/09/15 09:49:41;;;;;;;4.63;0.32;;;;;;;18.38;31.68;100523.91;5004496;28;20061;-76
2022/09/15 09:52:07;;;;;;;2.25;0.10;;;;;;;17.83;32.38;100526.38;5001234;28;20782;-78
2022/09/15 09:54:34;;;;;;;0.98;0.10;;;;;;;17.49;33.45;100526.25;5006179;28;20044;-77
2022/09/15 09:57:12;;;;;;;6.10;0.65;;;;;;;17.67;33.31;100525.81;4990800;28;20506;-79
2022/09/15 09:59:43;;;;;;;2.58;0.10;;;;;;;17.84;33.21;100522.75;5008987;28;20033;-76
2022/09/15 10:02:20;;;;;;;0.85;0.10;;;;;;;16.97;33.37;100522.16;5008906;28;20138;-78
2022/09/15 10:05:01;;;;;;;3.85;0.20;;;;;;;17.84;33.71;100526.22;5011838;28;20053;-77
2022/09/15 10:07:27;;;;;;;3.67;0.80;;;;;;;19.42;31.79;100523.44;4995351;28;20041;-78
2022/09/15 10:09:55;;;;;;;2.75;0.20;;;;;;;19.36;31.46;100517.81;4996270;28;20044;-77
2022/09/15 10:12:33;;;;;;;3.45;0.30;;;;;;;18.34;32.64;100520.69;4983047;28;20042;-80
2022/09/15 10:15:02;;;;;;;1.60;0.47;;;;;;;17.63;33.42;100528.72;5008015;28;20057;-77
2022/09/15 10:17:41;;;;;;;11.55;0.50;;;;;;;17.79;34.98;100519.63;5006861;28;20099;-78
2022/09/15 10:20:46;;;;;;;0.30;0.10;;;;;;;17.27;35.48;100523.50;5016441;28;20034;-77
2022/09/15 10:23:20;;;;;;;0.95;0.10;;;;;;;16.16;37.02;100526.09;4941467;28;20488;-77
2022/09/15 10:25:46;;;;;;;0.88;0.10;;;;;;;15.62;36.97;100515.69;5001487;28;20046;-79
2022/09/15 10:28:14;;;;;;;0.90;0.00;;;;;;;15.14;36.96;100527.53;5003854;28;20033;-78
2022/09/15 10:31:09;;;;;;;1.70;0.08;;;;;;;14.96;36.83;100528.72;4990424;28;20038;-78
2022/09/15 10:33:43;;;;;;;0.50;0.10;;;;;;;15.37;35.55;100538.38;4984732;28;20041;-77
2022/09/15 10:36:27;;;;;;;0.98;0.10;;;;;;;15.78;35.67;100535.63;4988071;28;20120;-78
2022/09/15 10:39:14;;;;;;;1.90;0.05;;;;;;;16.44;34.73;100524.16;5006313;28;20042;-73
2022/09/15 10:42:04;;;;;;;0.35;0.15;;;;;;;16.63;34.96;100535.09;4984952;28;20089;-78
2022/09/15 10:44:45;;;;;;;2.60;0.30;;;;;;;16.29;40.86;100544.56;5009582;28;20256;-78
2022/09/15 10:47:30;;;;;;;1.85;0.35;;;;;;;15.81;39.50;100547.75;5005223;28;20042;-77
2022/09/15 10:50:12;;;;;;;2.33;0.10;;;;;;;16.03;39.80;100552.44;5008937;28;20756;-77
2022/09/15 10:53:15;;;;;;;0.93;0.10;;;;;;;15.69;37.47;100544.16;5006313;28;20192;-77
2022/09/15 10:55:56;;;;;;;0.63;0.10;;;;;;;16.40;35.71;100550.75;5002555;28;20034;-78
2022/09/15 10:58:44;;;;;;;1.88;0.10;;;;;;;17.27;33.84;100539.34;5004815;28;20100;-78
2022/09/15 11:01:24;;;;;;;0.80;0.20;;;;;;;17.47;34.33;100540.50;5018998;28;20042;-78
2022/09/15 11:04:14;;;;;;;3.10;0.30;;;;;;;17.94;32.53;100523.75;4998906;28;20184;-79
2022/09/15 11:07:25;;;;;;;2.25;0.30;;;;;;;17.82;32.31;100524.66;5000642;28;20038;-79
2022/09/15 11:10:00;;;;;;;0.73;0.10;;;;;;;17.84;31.52;100528.03;4986351;28;20038;-77
2022/09/15 11:12:32;;;;;;;2.47;0.10;;;;;;;18.24;31.04;100525.81;4993991;28;20050;-78
2022/09/15 11:15:24;;;;;;;1.38;0.43;;;;;;;19.01;30.20;100522.41;4978668;28;20415;-79
2022/09/15 11:18:16;;;;;;;3.23;0.20;;;;;;;18.97;30.78;100513.03;4989149;28;20073;-78
2022/09/15 11:21:34;;;;;;;1.48;0.20;;;;;;;17.67;33.63;100526.69;5005996;28;20911;-78
2022/09/15 11:24:19;;;;;;;0.50;0.10;;;;;;;17.81;33.54;100525.63;4939869;28;20053;-76
2022/09/15 11:26:52;;;;;;;2.97;0.25;;;;;;;17.13;34.63;100533.28;5009605;28;20041;-77
2022/09/15 11:29:59;;;;;;;4.03;0.10;;;;;;;16.72;35.83;100537.09;4997568;28;20056;-77
2022/09/15 11:32:36;;;;;;;5.55;0.30;;;;;;;17.84;35.13;100528.88;4989771;28;20073;-77
2022/09/15 11:35:25;;;;;;;3.95;0.77;;;;;;;18.00;34.52;100539.09;5007092;28;20072;-77
2022/09/15 11:37:55;;;;;;;1.58;0.10;;;;;;;18.20;33.69;100534.97;4966419;28;20091;-78
2022/09/15 11:40:32;;;;;;;13.32;0.70;;;;;;;18.03;31.87;100530.13;4996128;28;20034;-77
2022/09/15 11:43:15;;;;;;;3.03;0.30;;;;;;;17.70;31.97;100528.25;4977350;28;20125;-76
2022/09/15 11:45:47;;;;;;;2.60;0.30;;;;;;;17.89;32.88;100536.44;4997869;28;20099;-78
2022/09/15 11:48:19;;;;;;;2.08;0.10;;;;;;;18.19;31.98;100533.28;4992689;28;20068;-77
2022/09/15 11:50:48;;;;;;;3.33;0.17;;;;;;;17.54;32.66;100547.06;4986463;28;20323;-78